createdAt,value
2022-10-18T00:18:42.990Z,30.27
2022-10-18T00:48:46.450Z,34.07
2022-10-18T01:18:49.851Z,32.53
2022-10-18T01:48:53.072Z,32.10
2022-10-18T02:18:57.321Z,30.13
2022-10-18T02:49:00.649Z,24.77
2022-10-18T03:19:03.623Z,24.87
2022-10-18T03:49:06.736Z,32.60
2022-10-18T04:19:10.220Z,38.27
2022-10-18T04:49:13.547Z,30.95
2022-10-18T05:19:16.665Z,29.17
2022-10-18T05:49:19.517Z,30.70
2022-10-18T06:19:22.890Z,36.60
2022-10-18T06:49:25.544Z,27.23
2022-10-18T07:19:29.250Z,28.13
2022-10-18T07:49:32.118Z,28.50
2022-10-18T08:19:35.709Z,25.70
2022-10-18T08:49:38.527Z,24.23
2022-10-18T09:19:41.907Z,23.20
2022-10-18T09:49:45.523Z,19.90
2022-10-18T10:19:48.575Z,25.33
2022-10-18T10:49:52.119Z,19.83
2022-10-18T11:19:55.418Z,11.20
2022-10-18T11:49:58.858Z,8.47
2022-10-18T12:20:02.449Z,8.10
2022-10-18T12:50:05.154Z,8.63
2022-10-18T13:20:25.064Z,11.93
2022-10-18T13:50:28.642Z,9.60
2022-10-18T14:20:36.889Z,8.40
2022-10-18T14:50:46.954Z,11.80
2022-10-18T15:20:50.783Z,11.50
2022-10-18T15:50:53.632Z,10.60
2022-10-18T16:20:57.917Z,11.50
2022-10-18T16:51:00.840Z,8.55
2022-10-18T17:21:04.439Z,6.20
2022-10-18T17:51:07.454Z,7.17
2022-10-18T18:21:10.809Z,9.65
2022-10-18T18:51:14.128Z,10.37
2022-10-18T19:21:17.132Z,7.60
2022-10-18T19:51:22.957Z,8.97
2022-10-18T20:21:29.110Z,8.63
2022-10-18T20:51:31.877Z,12.13
2022-10-18T21:21:35.332Z,11.73
2022-10-18T21:51:38.518Z,13.10
2022-10-18T22:21:41.954Z,14.37
2022-10-18T22:51:44.768Z,19.67
2022-10-18T23:21:48.115Z,19.60
2022-10-18T23:51:51.679Z,19.95
